Soaring Guidance
Issued by NWS Reno, NV

Home | Current Version | Previous Version | Text Only | Print | Product List | Glossary On
Versions: 1 2 3 4 5 6 7
000
UXUS97 KREV 191451
SRGREV

SOARING FORECAST
NATIONAL WEATHER SERVICE - RENO NV
700 AM PST FRI JAN 19 2018

THIS SOARING FORECAST IS FOR THE EASTERN SIERRA AND WESTERN NEVADA
WITH SPECIFIC INDICES FOR THE GREATER RENO AREA.

THIS FORECAST IS PREPARED DAILY BY 700 AM AND IS NOT UPDATED.

FOR CURRENT FLIGHT CONDITIONS...FORECASTS...AND ADVISORIES...ACCESS
YOUR LOCAL BRIEFING OUTLET OR FLIGHT SERVICE STATION.

*******************************************************************
FORECASTED LOCAL INDICES FOR RENO:        TODAY     YESTERDAY
FORECASTED MAX TEMP AT RENO (DEG F).....     61          65
FORECASTED TRIGGER TEMPERATURE (DEG F)..     58          58
   EXCEEDED YESTERDAY BY 955 AM PST
FORECASTED MAXIMUM ALTITUDE (FT MSL)....  10500       10500
FORECASTED SOARING INDEX (FPM)..........    465         465
FORECASTED K-INDEX.........VALID 18Z....      5          19
FORECASTED K-INDEX.........VALID 00Z....     22          27
FORECASTED LIFTED INDEX....VALID 18Z....     -2           5
FORECASTED LIFTED INDEX....VALID 00Z....     -2           4

AFTERNOON WINDS ALOFT FORECAST
MSL (FT) WIND/TEMP
9000  3010/-10
10000 2811/-12
12000 2713/-17
14000 2316/-21
16000 2219/-26
18000 2229/-31
24000 2284/-36
30000 21128/-44
34000 22105/-49
39000 2380/-50

SLIDE MOUNTAIN DATA:
     DATE       TIME     TEMP  DEWPT   RH         WIND (MPH)
                        (F)   (F)           | DIR  SPEED GUST
2018-01-18    08:50      31    31    100    | 230   52   63
2018-01-18    08:30      31    31    100    | 231   55   72
2018-01-18    08:20      30    30    100    | 230   55   68
2018-01-18    08:00      30    30    100    | 227   51   68

SIERRA CREST 8700 FT DATA:
   DATE     TIME  TEMP  RH         WIND
                            DIR   SPEED   GUST
2018-01-18 0915   32  100   227     48     68
2018-01-18 0900   32  100   226     49     70
2018-01-18 0845   32  100   225     46     61
2018-01-18 0830   32  100   227     46     64

RENO TAF FORECAST:
KRNO 191129Z 1912/2012 25011G18KT P6SM VCSH FEW020 BKN040
     FM191500 30012G20KT P6SM FEW035 BKN050
     FM200000 32009KT P6SM VCSH BKN030 BKN040
     FM200400 33006KT P6SM BKN050

CARSON CITY TAF FORECAST:
KCXP 191129Z 1912/2012 25011G18KT P6SM VCSH FEW020 BKN040
     FM191600 28010G15KT P6SM FEW030 BKN045
     FM200000 31006KT P6SM VCSH BKN030 BKN040
     FM200400 33006KT P6SM BKN040

OUTLOOK FOR THE RENO-CARSON CITY-MINDEN AREA:
.SATURDAY...PARTLY CLOUDY. HIGHS 36 TO 41. NORTHWEST WINDS UP TO
10 MPH.

SUNRISE AND SUNSET
JANUARY 19 2018.......SUNRISE   716 AM PST   SUNSET   504 PM PST
JANUARY 20 2018.......SUNRISE   715 AM PST   SUNSET   505 PM PST



USA.gov is the U.S. government's official web portal to all federal, state and local government web resources and services.